Time;durP1;ratioP1;P1;durP2;ratioP2;P2;SDS_P1;SDS_P2;PMS_P1;PMS_P2;Temp;Humidity;BMP_temperature;BMP_pressure;BME280_temperature;BME280_humidity;BME280_pressure;Samples;Min_cycle;Max_cycle;Signal;HPM_P1;HPM_P2
2023/03/05 00:04:18;;;;;;;1.33;0.88;;;15.00;63.40;;;;;;10449627;28;20532;-60
2023/03/05 00:09:19;;;;;;;5.32;1.83;;;15.00;63.50;;;;;;10448328;28;20112;-59
2023/03/05 00:14:19;;;;;;;3.08;0.63;;;15.00;63.40;;;;;;10448038;28;20100;-59
2023/03/05 00:19:20;;;;;;;3.40;1.00;;;15.00;63.50;;;;;;10448995;28;20070;-60
2023/03/05 00:24:21;;;;;;;2.20;0.77;;;15.00;63.60;;;;;;10448969;28;20112;-60
2023/03/05 00:29:22;;;;;;;1.83;0.70;;;15.00;63.70;;;;;;10448545;28;20108;-59
2023/03/05 00:34:24;;;;;;;2.78;0.80;;;14.90;63.80;;;;;;10447004;28;20018;-60
2023/03/05 00:39:25;;;;;;;2.30;0.93;;;14.90;63.70;;;;;;10448551;28;20062;-60
2023/03/05 00:44:25;;;;;;;4.15;0.77;;;15.00;63.70;;;;;;10446898;28;20123;-60
2023/03/05 00:49:26;;;;;;;2.90;0.85;;;14.90;63.80;;;;;;10433514;28;20029;-60
2023/03/05 00:54:27;;;;;;;1.15;0.70;;;14.90;63.60;;;;;;10446476;28;20396;-60
2023/03/05 00:59:27;;;;;;;2.65;0.77;;;14.90;63.60;;;;;;10445962;28;20036;-59
2023/03/05 01:04:28;;;;;;;2.72;0.85;;;14.90;63.60;;;;;;10447238;28;20144;-60
2023/03/05 01:09:29;;;;;;;2.13;0.70;;;14.90;63.70;;;;;;10446006;28;20049;-59
2023/03/05 01:14:30;;;;;;;2.83;1.20;;;14.80;63.50;;;;;;10428707;28;20028;-60
2023/03/05 01:19:30;;;;;;;2.35;0.80;;;14.80;63.60;;;;;;10445513;28;20104;-58
2023/03/05 01:24:31;;;;;;;2.53;0.75;;;14.80;63.10;;;;;;10446331;28;20028;-60
2023/03/05 01:29:32;;;;;;;2.13;0.90;;;14.80;63.30;;;;;;10442857;28;20033;-59
2023/03/05 01:34:35;;;;;;;2.60;0.70;;;14.80;63.10;;;;;;10429163;28;20025;-60
2023/03/05 01:39:36;;;;;;;2.17;0.70;;;14.80;63.20;;;;;;10446367;28;20079;-59
2023/03/05 01:44:37;;;;;;;1.60;0.50;;;14.80;63.40;;;;;;10446093;28;20106;-60
2023/03/05 01:49:39;;;;;;;1.00;0.38;;;14.80;63.30;;;;;;10445431;28;20040;-59
2023/03/05 01:54:55;;;;;;;2.60;0.70;;;14.80;63.40;;;;;;10427725;28;20020;-60
2023/03/05 02:00:01;;;;;;;2.13;0.70;;;14.80;63.40;;;;;;10445999;28;20032;-59
2023/03/05 02:05:14;;;;;;;1.98;0.60;;;14.70;63.40;;;;;;10431303;28;20049;-60
2023/03/05 02:10:20;;;;;;;1.58;0.55;;;14.70;63.50;;;;;;10452788;28;20075;-59
2023/03/05 02:15:21;;;;;;;0.80;0.43;;;14.70;63.50;;;;;;10452828;28;20075;-60
2023/03/05 02:20:26;;;;;;;0.60;0.35;;;14.70;63.60;;;;;;10435456;28;20067;-60
2023/03/05 02:25:28;;;;;;;1.75;0.60;;;14.70;63.30;;;;;;10452153;28;20021;-60
2023/03/05 02:30:30;;;;;;;1.25;0.65;;;14.70;63.40;;;;;;10452156;28;20476;-59
2023/03/05 02:35:31;;;;;;;1.55;0.60;;;14.70;63.30;;;;;;10435484;28;20028;-60
2023/03/05 02:40:31;;;;;;;2.00;0.60;;;14.70;63.40;;;;;;10451838;28;20013;-60
2023/03/05 02:45:32;;;;;;;1.88;0.63;;;14.60;63.00;;;;;;10451807;28;20031;-60
2023/03/05 02:50:34;;;;;;;1.02;0.50;;;14.70;63.10;;;;;;10438244;28;20035;-60
2023/03/05 02:55:35;;;;;;;1.55;0.70;;;14.70;63.10;;;;;;10450864;28;20025;-60
2023/03/05 03:00:35;;;;;;;1.35;0.68;;;14.70;63.10;;;;;;10451143;28;20724;-60
2023/03/05 03:05:36;;;;;;;1.40;0.73;;;14.60;63.30;;;;;;10450628;28;20412;-59
2023/03/05 03:10:37;;;;;;;1.65;0.60;;;14.60;63.20;;;;;;10451939;28;20647;-60
2023/03/05 03:15:39;;;;;;;1.75;0.70;;;14.60;63.10;;;;;;10451835;28;20569;-63
2023/03/05 03:20:39;;;;;;;0.82;0.52;;;14.60;63.20;;;;;;10434081;28;20459;-60
2023/03/05 03:25:40;;;;;;;3.40;0.82;;;14.60;63.30;;;;;;10449901;28;20033;-60
2023/03/05 03:30:41;;;;;;;1.17;0.57;;;14.60;63.30;;;;;;10449971;28;20047;-61
2023/03/05 03:35:41;;;;;;;1.55;0.50;;;14.60;63.30;;;;;;10451166;28;20023;-60
2023/03/05 03:40:42;;;;;;;1.55;0.80;;;14.50;63.00;;;;;;10449678;28;20108;-60
2023/03/05 03:45:43;;;;;;;3.08;0.80;;;14.60;62.40;;;;;;10449486;28;20542;-60
2023/03/05 03:50:44;;;;;;;1.85;0.80;;;14.80;61.90;;;;;;10436832;28;20036;-59
2023/03/05 03:55:45;;;;;;;3.03;1.02;;;15.20;60.70;;;;;;10450211;28;20489;-60
2023/03/05 04:00:46;;;;;;;1.52;0.60;;;15.40;60.00;;;;;;10445481;28;20029;-60
2023/03/05 04:05:47;;;;;;;2.10;0.90;;;15.60;59.20;;;;;;10448396;28;20061;-60
2023/03/05 04:10:47;;;;;;;2.85;1.35;;;15.80;58.60;;;;;;10448165;28;20029;-60
2023/03/05 04:15:49;;;;;;;1.20;0.75;;;15.90;58.20;;;;;;10447974;28;20095;-60
2023/03/05 04:20:50;;;;;;;4.03;0.98;;;16.10;57.60;;;;;;10447565;28;20662;-59
2023/03/05 04:25:50;;;;;;;2.63;0.98;;;16.30;57.00;;;;;;10447120;28;20048;-60
2023/03/05 04:30:51;;;;;;;2.85;0.63;;;16.50;56.60;;;;;;10448201;28;20053;-59
2023/03/05 04:35:52;;;;;;;3.58;0.93;;;16.60;56.40;;;;;;10447253;28;20023;-59
2023/03/05 04:40:52;;;;;;;2.10;0.82;;;16.60;56.20;;;;;;10448546;28;20024;-60
2023/03/05 04:45:54;;;;;;;2.83;1.20;;;16.70;56.00;;;;;;10447348;28;20096;-60
2023/03/05 04:50:56;;;;;;;1.70;0.65;;;16.80;55.90;;;;;;10446088;28;20728;-59
2023/03/05 04:56:00;;;;;;;3.03;1.00;;;16.80;55.80;;;;;;10445679;28;20017;-59
2023/03/05 05:01:03;;;;;;;1.02;0.65;;;16.90;55.70;;;;;;10444022;28;20029;-60
2023/03/05 05:06:04;;;;;;;2.10;0.82;;;16.90;55.50;;;;;;10436096;28;20565;-59
2023/03/05 05:11:06;;;;;;;3.53;1.17;;;17.00;55.40;;;;;;10446914;28;20669;-60
2023/03/05 05:16:08;;;;;;;2.28;0.93;;;16.90;55.60;;;;;;10445535;28;20013;-59
2023/03/05 05:21:11;;;;;;;2.92;1.20;;;16.90;55.80;;;;;;10444698;28;20048;-60
2023/03/05 05:26:15;;;;;;;1.00;0.65;;;16.80;56.00;;;;;;10444527;28;20082;-60
2023/03/05 05:31:18;;;;;;;2.10;0.52;;;16.70;56.10;;;;;;10445182;28;20091;-59
2023/03/05 05:36:21;;;;;;;2.53;0.70;;;16.70;56.40;;;;;;10445548;28;20050;-60
2023/03/05 05:41:21;;;;;;;1.65;0.63;;;16.60;56.60;;;;;;10444766;28;20021;-59
2023/03/05 05:46:23;;;;;;;3.00;0.80;;;16.50;56.70;;;;;;10444191;28;20519;-59
2023/03/05 05:51:24;;;;;;;2.20;0.50;;;16.40;56.90;;;;;;10444917;28;20106;-59
2023/03/05 05:56:25;;;;;;;8.13;0.95;;;16.40;57.20;;;;;;10426888;28;20529;-60
2023/03/05 06:01:29;;;;;;;15.93;1.70;;;16.30;57.80;;;;;;10439661;28;20029;-56
2023/03/05 06:06:30;;;;;;;16.77;3.00;;;16.50;59.70;;;;;;10435685;28;20049;-56
2023/03/05 06:11:32;;;;;;;16.30;2.13;;;16.90;59.00;;;;;;10443345;28;20358;-59
2023/03/05 06:16:33;;;;;;;13.73;2.50;;;17.10;58.80;;;;;;10460268;28;20017;-56
2023/03/05 06:21:34;;;;;;;22.55;3.30;;;17.40;57.60;;;;;;10443000;28;20622;-58
2023/03/05 06:26:35;;;;;;;9.00;1.92;;;17.50;58.20;;;;;;10443545;28;20025;-56
2023/03/05 06:31:35;;;;;;;13.65;2.08;;;17.70;57.90;;;;;;10445657;28;20029;-57
2023/03/05 06:36:37;;;;;;;11.55;2.40;;;17.70;58.10;;;;;;10444186;28;20047;-57
2023/03/05 06:41:38;;;;;;;8.57;2.00;;;17.70;57.50;;;;;;10443750;28;20052;-55
2023/03/05 06:46:39;;;;;;;9.88;2.05;;;17.70;57.90;;;;;;10444751;28;20025;-57
2023/03/05 06:51:41;;;;;;;26.42;2.58;;;17.80;57.70;;;;;;10446794;28;20154;-56
2023/03/05 06:56:44;;;;;;;10.95;2.35;;;17.90;57.70;;;;;;10450942;28;20049;-57
2023/03/05 07:01:46;;;;;;;13.98;2.80;;;17.90;57.70;;;;;;10467415;28;20636;-57
2023/03/05 07:06:47;;;;;;;18.10;2.70;;;17.90;57.70;;;;;;10452088;28;20084;-57
2023/03/05 07:11:47;;;;;;;15.18;3.35;;;17.90;57.90;;;;;;10433402;28;20121;-56
2023/03/05 07:16:49;;;;;;;11.35;2.97;;;17.90;57.80;;;;;;10449861;28;20017;-57
2023/03/05 07:21:49;;;;;;;13.98;3.58;;;17.90;58.00;;;;;;10464699;28;20445;-57
2023/03/05 07:26:50;;;;;;;13.10;2.58;;;18.10;57.90;;;;;;10451078;28;20108;-57
2023/03/05 07:31:52;;;;;;;15.77;2.35;;;18.00;57.90;;;;;;10449394;28;20116;-58
2023/03/05 07:36:52;;;;;;;10.00;2.78;;;18.10;57.60;;;;;;10447523;28;20036;-57
2023/03/05 07:41:53;;;;;;;12.48;2.63;;;18.20;57.40;;;;;;10447518;28;20031;-55
2023/03/05 07:46:54;;;;;;;10.32;2.58;;;18.10;57.60;;;;;;10448151;28;20086;-56
2023/03/05 07:51:54;;;;;;;11.20;2.63;;;18.10;57.60;;;;;;10449760;28;20116;-54
2023/03/05 07:56:55;;;;;;;16.25;2.05;;;18.20;57.50;;;;;;10449026;28;20474;-55
2023/03/05 08:01:56;;;;;;;12.60;2.70;;;18.10;57.70;;;;;;10449001;28;20017;-59
2023/03/05 08:06:58;;;;;;;8.15;1.50;;;18.10;57.90;;;;;;10448291;28;20126;-56
2023/03/05 08:11:59;;;;;;;3.88;2.00;;;18.10;58.10;;;;;;10448580;28;20025;-56
2023/03/05 08:17:00;;;;;;;12.30;1.83;;;18.00;58.10;;;;;;10439065;28;20017;-56
2023/03/05 08:22:00;;;;;;;9.48;2.08;;;17.90;58.00;;;;;;10447827;28;20108;-55
2023/03/05 08:27:01;;;;;;;10.57;1.85;;;17.90;58.10;;;;;;10448911;28;20013;-55
2023/03/05 08:32:02;;;;;;;9.73;2.05;;;17.70;58.30;;;;;;10447626;28;20115;-57
2023/03/05 08:37:02;;;;;;;9.43;1.90;;;17.60;58.30;;;;;;10447846;28;20376;-56
2023/03/05 08:42:04;;;;;;;8.88;2.00;;;17.60;58.50;;;;;;10448143;28;20017;-57
2023/03/05 08:47:05;;;;;;;19.45;2.58;;;17.60;59.10;;;;;;10435400;28;20023;-55
2023/03/05 08:52:06;;;;;;;14.10;2.65;;;17.60;59.20;;;;;;10443508;28;20373;-57
2023/03/05 08:57:07;;;;;;;11.68;2.47;;;17.70;58.70;;;;;;10443859;28;20013;-54
2023/03/05 09:02:12;;;;;;;15.20;2.28;;;17.80;60.10;;;;;;10444914;28;20112;-56
2023/03/05 09:07:13;;;;;;;11.57;2.42;;;17.70;59.00;;;;;;10442809;28;20056;-56
2023/03/05 09:12:14;;;;;;;16.15;2.88;;;17.50;59.30;;;;;;10424997;28;20048;-56
2023/03/05 09:17:15;;;;;;;16.98;2.58;;;17.50;60.50;;;;;;10423980;28;20025;-52
2023/03/05 09:22:16;;;;;;;13.57;2.40;;;17.60;61.10;;;;;;10432664;28;20104;-58
2023/03/05 09:27:17;;;;;;;18.50;2.55;;;17.60;60.30;;;;;;10442624;28;20094;-56
2023/03/05 09:32:17;;;;;;;10.77;2.30;;;17.50;59.90;;;;;;10407940;28;20036;-55
2023/03/05 09:37:18;;;;;;;15.80;2.50;;;17.60;59.30;;;;;;10441426;28;20028;-56
2023/03/05 09:42:29;;;;;;;14.15;1.92;;;17.60;59.20;;;;;;10439308;28;20037;-56
2023/03/05 09:47:56;;;;;;;10.15;2.30;;;17.40;59.40;;;;;;10439542;28;20116;-57
2023/03/05 09:53:39;;;;;;;10.75;2.03;;;17.40;59.30;;;;;;10415210;28;20237;-56
2023/03/05 09:58:48;;;;;;;11.27;2.50;;;17.40;59.10;;;;;;10436509;28;20545;-56
2023/03/05 10:04:07;;;;;;;13.73;3.67;;;17.40;59.20;;;;;;10458516;28;20082;-56
2023/03/05 10:09:37;;;;;;;9.10;2.13;;;17.30;59.00;;;;;;10433451;28;20049;-55
2023/03/05 10:14:40;;;;;;;5.70;2.30;;;17.30;59.00;;;;;;10442207;28;20013;-55
2023/03/05 10:20:13;;;;;;;10.13;1.83;;;17.30;58.60;;;;;;10452730;28;20032;-57
2023/03/05 10:25:46;;;;;;;10.50;1.40;;;17.30;58.50;;;;;;10444945;28;20014;-55
2023/03/05 10:31:06;;;;;;;3.15;1.17;;;17.30;58.50;;;;;;10450224;28;20021;-57
2023/03/05 10:36:48;;;;;;;5.30;1.17;;;17.30;58.20;;;;;;10445838;28;20541;-56
2023/03/05 10:42:10;;;;;;;5.68;1.25;;;17.40;58.10;;;;;;10433829;28;20025;-56
2023/03/05 10:47:30;;;;;;;7.20;1.77;;;17.30;58.10;;;;;;10449875;28;20021;-56
2023/03/05 10:52:39;;;;;;;5.28;1.02;;;17.40;58.00;;;;;;10463796;28;20033;-56
2023/03/05 10:57:40;;;;;;;4.85;1.05;;;17.40;57.80;;;;;;10457265;28;20108;-56
2023/03/05 11:03:07;;;;;;;5.22;1.27;;;17.30;57.90;;;;;;10449633;28;20098;-56
2023/03/05 11:08:35;;;;;;;3.28;0.90;;;17.30;57.90;;;;;;10444844;28;20040;-57
2023/03/05 11:13:48;;;;;;;7.60;1.77;;;17.40;57.70;;;;;;10446652;28;20124;-56
2023/03/05 11:19:09;;;;;;;4.75;0.80;;;17.40;57.40;;;;;;10448662;28;20399;-56
2023/03/05 11:24:18;;;;;;;3.58;1.00;;;17.40;57.40;;;;;;10438248;28;20021;-57
2023/03/05 11:29:29;;;;;;;4.27;0.90;;;17.30;57.70;;;;;;10463379;28;20366;-55
2023/03/05 11:34:34;;;;;;;8.10;0.95;;;16.90;60.40;;;;;;10463451;28;20166;-54
2023/03/05 11:39:37;;;;;;;3.92;0.82;;;16.80;59.50;;;;;;10446558;28;20021;-56
2023/03/05 11:44:52;;;;;;;1.98;0.80;;;16.90;58.90;;;;;;10445011;28;20045;-57
2023/03/05 11:50:27;;;;;;;4.65;0.80;;;16.80;59.30;;;;;;10451094;28;20112;-56
2023/03/05 11:55:45;;;;;;;6.68;0.93;;;16.90;58.90;;;;;;10436513;28;20041;-57
2023/03/05 12:00:47;;;;;;;3.10;0.73;;;16.70;60.20;;;;;;10462435;28;20074;-56
2023/03/05 12:05:57;;;;;;;2.05;0.85;;;16.50;60.60;;;;;;10445256;28;20037;-56
2023/03/05 12:11:04;;;;;;;4.88;1.05;;;16.60;59.60;;;;;;10445745;28;20025;-55
2023/03/05 12:16:17;;;;;;;3.33;1.05;;;16.90;58.60;;;;;;10445189;28;20345;-56
2023/03/05 12:21:33;;;;;;;6.63;1.33;;;17.00;58.00;;;;;;10444049;28;20697;-55
2023/03/05 12:26:52;;;;;;;5.72;0.77;;;17.10;58.20;;;;;;10447202;28;20056;-57
2023/03/05 12:31:53;;;;;;;4.25;0.75;;;17.10;58.90;;;;;;10448538;28;20124;-57
2023/03/05 12:36:53;;;;;;;7.40;1.25;;;17.00;58.70;;;;;;10447699;28;20449;-58
2023/03/05 12:41:55;;;;;;;5.80;1.10;;;17.40;58.10;;;;;;10432566;28;20556;-58
2023/03/05 12:47:11;;;;;;;12.57;1.50;;;17.40;58.50;;;;;;10447812;28;20029;-58
2023/03/05 12:52:24;;;;;;;18.88;3.42;;;17.40;58.80;;;;;;10445947;28;20526;-58
2023/03/05 12:57:28;;;;;;;10.45;3.63;;;17.50;58.50;;;;;;10447147;28;20017;-57
2023/03/05 13:02:42;;;;;;;15.77;3.70;;;17.70;58.90;;;;;;10428059;28;20107;-57
2023/03/05 13:07:43;;;;;;;13.43;2.47;;;17.70;58.10;;;;;;10435277;28;20094;-57
2023/03/05 13:12:54;;;;;;;12.48;2.45;;;17.80;57.60;;;;;;10438135;28;20059;-56
2023/03/05 13:18:06;;;;;;;11.90;2.22;;;17.90;57.20;;;;;;10437305;28;20049;-56
2023/03/05 13:23:25;;;;;;;14.73;2.67;;;18.00;57.60;;;;;;10434889;28;20041;-57
2023/03/05 13:28:27;;;;;;;13.33;2.90;;;17.90;57.50;;;;;;10412080;28;20039;-54
2023/03/05 13:33:34;;;;;;;8.20;1.88;;;17.80;58.60;;;;;;10445618;28;20027;-57
2023/03/05 13:38:42;;;;;;;7.97;1.45;;;17.70;59.00;;;;;;10445088;28;20025;-58
2023/03/05 13:43:51;;;;;;;13.57;2.58;;;17.60;59.20;;;;;;10394106;28;20671;-57
2023/03/05 13:48:52;;;;;;;19.92;3.38;;;17.70;58.80;;;;;;10427408;28;20025;-58
2023/03/05 13:53:53;;;;;;;8.85;1.98;;;17.80;59.10;;;;;;10443862;28;20021;-58
2023/03/05 13:58:55;;;;;;;12.63;2.22;;;17.70;59.80;;;;;;10443515;28;20507;-58
2023/03/05 14:04:26;;;;;;;16.27;3.13;;;17.60;59.70;;;;;;10455689;28;20508;-58
2023/03/05 14:09:49;;;;;;;26.77;4.13;;;17.50;59.60;;;;;;10444620;28;20049;-58
2023/03/05 14:14:50;;;;;;;24.92;5.45;;;18.00;59.90;;;;;;10449044;28;20021;-57
2023/03/05 14:19:51;;;;;;;18.83;4.47;;;18.20;61.10;;;;;;10453180;28;20041;-56
2023/03/05 14:24:51;;;;;;;26.10;5.10;;;18.30;61.00;;;;;;10452556;28;20018;-57
2023/03/05 14:29:52;;;;;;;31.25;3.92;;;18.30;61.80;;;;;;10446826;28;20384;-59
2023/03/05 14:34:59;;;;;;;22.27;4.50;;;18.20;62.60;;;;;;10445185;28;20037;-60
2023/03/05 14:40:17;;;;;;;33.42;6.43;;;18.20;62.90;;;;;;10442763;28;20548;-56
2023/03/05 14:45:32;;;;;;;29.35;5.43;;;18.20;63.20;;;;;;10436228;28;20381;-57
2023/03/05 14:50:50;;;;;;;23.40;4.05;;;18.00;62.90;;;;;;10432872;28;20025;-57
2023/03/05 14:55:56;;;;;;;25.15;4.95;;;17.50;61.00;;;;;;10439695;28;20345;-57
2023/03/05 15:00:58;;;;;;;21.15;4.53;;;17.10;62.80;;;;;;10442798;28;20026;-56
2023/03/05 15:05:59;;;;;;;20.45;3.13;;;17.30;59.40;;;;;;10443166;28;20041;-57
2023/03/05 15:11:00;;;;;;;10.82;3.65;;;17.40;58.50;;;;;;10433022;28;20043;-56
2023/03/05 15:16:04;;;;;;;12.30;3.20;;;17.50;57.90;;;;;;10450165;28;20013;-57
2023/03/05 15:21:05;;;;;;;12.63;2.95;;;17.70;57.50;;;;;;10446677;28;20032;-55
2023/03/05 15:26:08;;;;;;;24.80;3.78;;;17.80;58.60;;;;;;10450416;28;20029;-58
2023/03/05 15:31:10;;;;;;;18.52;3.15;;;17.90;57.30;;;;;;10448444;28;20115;-55
2023/03/05 15:36:10;;;;;;;14.00;2.83;;;17.80;57.70;;;;;;10439591;28;20017;-56
2023/03/05 15:41:12;;;;;;;10.55;2.70;;;17.90;59.00;;;;;;10447000;28;20025;-56
2023/03/05 15:46:12;;;;;;;16.98;3.95;;;18.00;59.00;;;;;;10440276;28;20045;-56
2023/03/05 15:51:14;;;;;;;17.88;3.17;;;17.90;59.10;;;;;;10448417;28;20474;-56
2023/03/05 15:56:16;;;;;;;18.05;3.85;;;18.00;59.20;;;;;;10450216;28;20021;-55
2023/03/05 16:01:22;;;;;;;19.80;4.15;;;18.00;59.20;;;;;;10419770;28;20052;-57
2023/03/05 16:06:23;;;;;;;14.27;3.45;;;17.90;59.50;;;;;;10447420;28;20457;-55
2023/03/05 16:11:26;;;;;;;9.10;3.17;;;17.80;59.80;;;;;;10449892;28;20455;-55
2023/03/05 16:16:27;;;;;;;14.75;3.28;;;17.50;58.70;;;;;;10439217;28;20112;-56
2023/03/05 16:21:28;;;;;;;12.82;2.75;;;17.60;58.10;;;;;;10444797;28;20742;-55
2023/03/05 16:26:29;;;;;;;8.55;2.92;;;17.70;59.20;;;;;;10447685;28;20029;-55
2023/03/05 16:31:36;;;;;;;15.35;5.10;;;17.80;58.30;;;;;;10442627;28;20486;-56
2023/03/05 16:36:37;;;;;;;9.45;3.70;;;18.00;57.80;;;;;;10447667;28;20025;-58
2023/03/05 16:41:38;;;;;;;8.98;3.15;;;18.30;57.20;;;;;;10445364;28;20108;-57
2023/03/05 16:46:40;;;;;;;7.40;3.30;;;18.60;55.70;;;;;;10448733;28;20033;-54
2023/03/05 16:51:41;;;;;;;6.18;1.90;;;18.80;55.80;;;;;;10440762;28;20484;-56
2023/03/05 16:56:42;;;;;;;7.93;2.25;;;18.90;56.00;;;;;;10447207;28;20016;-56
2023/03/05 17:01:43;;;;;;;10.43;2.00;;;18.70;58.00;;;;;;10447899;28;20093;-56
2023/03/05 17:06:46;;;;;;;10.07;2.95;;;18.60;59.20;;;;;;10436128;28;20684;-56
2023/03/05 17:11:46;;;;;;;21.40;3.78;;;18.80;60.10;;;;;;10453931;28;20045;-57
2023/03/05 17:16:48;;;;;;;10.85;2.67;;;18.80;61.00;;;;;;10442719;28;20059;-53
2023/03/05 17:21:51;;;;;;;13.65;3.22;;;18.70;62.60;;;;;;10445174;28;20116;-55
2023/03/05 17:26:51;;;;;;;16.25;2.90;;;19.30;61.30;;;;;;10446813;28;20043;-55
2023/03/05 17:31:52;;;;;;;11.30;3.05;;;19.10;62.10;;;;;;10430872;28;20579;-58
2023/03/05 17:36:53;;;;;;;11.90;3.05;;;18.90;63.60;;;;;;10443561;28;20039;-56
2023/03/05 17:41:53;;;;;;;9.65;3.08;;;18.80;64.20;;;;;;10445539;28;20120;-56
2023/03/05 17:46:55;;;;;;;9.05;2.47;;;18.80;65.00;;;;;;10446325;28;20039;-57
2023/03/05 17:51:55;;;;;;;12.60;3.05;;;18.70;65.80;;;;;;10426592;28;20044;-57
2023/03/05 17:56:57;;;;;;;9.20;2.80;;;18.60;66.50;;;;;;10438861;28;20674;-55
2023/03/05 18:01:57;;;;;;;13.27;2.88;;;18.70;66.30;;;;;;10442851;28;20033;-56
2023/03/05 18:07:00;;;;;;;12.35;4.07;;;18.60;66.50;;;;;;10444053;28;20049;-56
2023/03/05 18:12:01;;;;;;;16.23;3.55;;;18.30;67.10;;;;;;10423380;28;20049;-57
2023/03/05 18:17:02;;;;;;;16.75;3.53;;;18.10;67.20;;;;;;10444787;28;20071;-57
2023/03/05 18:22:03;;;;;;;13.35;5.15;;;18.00;68.10;;;;;;10444939;28;20021;-59
2023/03/05 18:27:03;;;;;;;22.35;5.63;;;17.80;67.60;;;;;;10444416;28;20017;-58
2023/03/05 18:32:04;;;;;;;17.95;3.50;;;17.80;67.70;;;;;;10445376;28;20752;-57
2023/03/05 18:37:05;;;;;;;15.48;4.00;;;17.70;67.80;;;;;;10445147;28;20043;-56
2023/03/05 18:42:10;;;;;;;8.20;2.25;;;17.70;68.10;;;;;;10445165;28;20023;-56
2023/03/05 18:47:11;;;;;;;18.10;3.53;;;17.70;68.30;;;;;;10447070;28;20082;-58
2023/03/05 18:52:12;;;;;;;14.00;2.20;;;17.70;68.30;;;;;;10438399;28;20112;-55
2023/03/05 18:57:12;;;;;;;8.90;2.65;;;17.60;68.30;;;;;;10451418;28;20140;-58
2023/03/05 19:02:15;;;;;;;8.68;2.85;;;17.50;67.60;;;;;;10451171;28;20042;-57
2023/03/05 19:07:16;;;;;;;9.45;2.88;;;17.30;67.80;;;;;;10450955;28;20049;-54
2023/03/05 19:12:22;;;;;;;8.18;2.67;;;17.20;67.50;;;;;;10450878;28;20029;-59
2023/03/05 19:17:22;;;;;;;12.68;3.47;;;17.30;67.90;;;;;;10450463;28;20047;-57
2023/03/05 19:22:25;;;;;;;8.93;3.25;;;17.40;67.80;;;;;;10450599;28;20410;-58
2023/03/05 19:27:26;;;;;;;7.93;3.00;;;17.50;68.20;;;;;;10450980;28;20028;-56
2023/03/05 19:32:27;;;;;;;8.23;3.35;;;17.50;68.00;;;;;;10448825;28;20381;-56
2023/03/05 19:37:29;;;;;;;9.52;2.95;;;17.50;67.50;;;;;;10449777;28;20021;-58
2023/03/05 19:42:30;;;;;;;7.57;3.10;;;17.50;67.30;;;;;;10449888;28;20017;-58
2023/03/05 19:47:30;;;;;;;6.72;2.78;;;17.70;66.90;;;;;;10449302;28;20025;-57
2023/03/05 19:52:31;;;;;;;8.40;2.58;;;17.80;66.20;;;;;;10435481;28;20144;-57
2023/03/05 19:57:32;;;;;;;6.00;2.17;;;17.80;65.50;;;;;;10447406;28;20040;-58
2023/03/05 20:02:32;;;;;;;5.28;2.50;;;17.80;64.50;;;;;;10449359;28;20108;-57
2023/03/05 20:07:33;;;;;;;7.35;2.20;;;17.60;64.90;;;;;;10448762;28;20180;-58
2023/03/05 20:12:35;;;;;;;6.82;2.10;;;17.50;64.50;;;;;;10430685;28;20220;-58
2023/03/05 20:17:35;;;;;;;5.68;2.53;;;17.60;64.00;;;;;;10427902;28;20017;-57
2023/03/05 20:22:36;;;;;;;6.55;2.22;;;17.70;63.70;;;;;;10430214;28;20098;-58
2023/03/05 20:27:38;;;;;;;5.22;1.95;;;17.60;63.70;;;;;;10446342;28;20101;-57
2023/03/05 20:32:39;;;;;;;6.47;2.25;;;17.50;63.90;;;;;;10446312;28;20021;-57
2023/03/05 20:37:48;;;;;;;7.35;1.80;;;17.40;64.00;;;;;;10446354;28;20013;-57
2023/03/05 20:42:48;;;;;;;4.28;1.80;;;17.30;64.20;;;;;;10444813;28;20102;-57
2023/03/05 20:47:49;;;;;;;6.18;2.33;;;17.20;64.30;;;;;;10445712;28;20103;-57
2023/03/05 20:52:50;;;;;;;5.07;1.70;;;17.10;64.90;;;;;;10446516;28;20132;-57
2023/03/05 20:57:50;;;;;;;6.95;1.30;;;17.00;64.50;;;;;;10448249;28;20040;-58
2023/03/05 21:02:54;;;;;;;3.58;1.73;;;17.00;64.60;;;;;;10446590;28;20443;-57
2023/03/05 21:07:56;;;;;;;3.78;1.95;;;16.90;64.80;;;;;;10445380;28;20451;-57
2023/03/05 21:12:57;;;;;;;4.05;1.77;;;16.80;64.80;;;;;;10445173;28;20051;-57
2023/03/05 21:17:58;;;;;;;6.18;3.00;;;16.70;64.80;;;;;;10447468;28;20032;-57
2023/03/05 21:22:59;;;;;;;5.13;2.80;;;16.60;64.90;;;;;;10446568;28;20512;-57
2023/03/05 21:28:16;;;;;;;4.43;1.70;;;16.60;65.00;;;;;;10445485;28;20028;-58
2023/03/05 21:33:27;;;;;;;3.30;1.70;;;16.60;65.00;;;;;;10446771;28;20650;-57
2023/03/05 21:38:29;;;;;;;3.28;1.80;;;16.50;64.90;;;;;;10445244;28;20025;-57
2023/03/05 21:43:30;;;;;;;2.80;1.80;;;16.50;64.90;;;;;;10445409;28;20471;-57
2023/03/05 21:48:31;;;;;;;3.92;1.42;;;16.40;64.90;;;;;;10423309;28;20530;-56
2023/03/05 21:53:32;;;;;;;2.65;1.73;;;16.40;64.90;;;;;;10438406;28;20083;-58
2023/03/05 21:58:33;;;;;;;3.30;1.42;;;16.30;64.90;;;;;;10444568;28;20607;-57
2023/03/05 22:03:34;;;;;;;4.20;1.80;;;16.30;64.90;;;;;;10444592;28;20021;-56
2023/03/05 22:08:35;;;;;;;3.55;1.70;;;16.20;64.90;;;;;;10444692;28;20123;-58
2023/03/05 22:13:36;;;;;;;3.63;1.23;;;16.20;64.80;;;;;;10444447;28;20064;-57
2023/03/05 22:18:37;;;;;;;4.22;1.50;;;16.20;64.80;;;;;;10444381;28;20074;-57
2023/03/05 22:23:38;;;;;;;4.07;1.40;;;16.20;64.80;;;;;;10450320;28;20017;-57
2023/03/05 22:28:39;;;;;;;2.53;1.70;;;16.10;64.70;;;;;;10452363;28;20119;-57
2023/03/05 22:33:39;;;;;;;2.40;1.35;;;16.00;64.60;;;;;;10435070;28;20099;-58
2023/03/05 22:38:42;;;;;;;2.70;1.20;;;16.10;64.60;;;;;;10451821;28;20043;-57
2023/03/05 22:43:43;;;;;;;3.50;1.38;;;16.00;64.50;;;;;;10452215;28;20028;-57
2023/03/05 22:48:45;;;;;;;3.53;1.85;;;16.00;64.40;;;;;;10444882;28;20040;-58
2023/03/05 22:53:46;;;;;;;2.47;1.27;;;15.90;64.20;;;;;;10461874;28;20029;-58
2023/03/05 22:58:47;;;;;;;4.15;1.23;;;15.90;64.30;;;;;;10451353;28;20033;-56
2023/03/05 23:03:53;;;;;;;1.45;0.98;;;15.90;64.10;;;;;;10451000;28;20023;-58
2023/03/05 23:08:54;;;;;;;3.40;1.42;;;15.90;64.10;;;;;;10452415;28;20086;-57
2023/03/05 23:13:55;;;;;;;2.95;1.25;;;15.90;64.00;;;;;;10452019;28;20013;-58
2023/03/05 23:18:55;;;;;;;3.85;1.45;;;15.80;64.10;;;;;;10451753;28;20107;-56
2023/03/05 23:23:56;;;;;;;4.20;1.63;;;15.80;63.90;;;;;;10450385;28;20104;-57
2023/03/05 23:28:57;;;;;;;3.63;1.58;;;15.80;63.80;;;;;;10450370;28;20023;-57
2023/03/05 23:33:58;;;;;;;3.60;1.92;;;15.80;63.80;;;;;;10449648;28;20051;-56
2023/03/05 23:38:58;;;;;;;2.55;1.20;;;15.80;63.80;;;;;;10450097;28;20029;-57
2023/03/05 23:43:59;;;;;;;2.95;1.63;;;15.70;63.60;;;;;;10449669;28;20120;-57
2023/03/05 23:48:59;;;;;;;2.55;1.20;;;15.70;63.60;;;;;;10450711;28;20091;-57
2023/03/05 23:54:00;;;;;;;2.17;1.60;;;15.70;63.60;;;;;;10448267;28;20107;-57
2023/03/05 23:59:01;;;;;;;2.47;1.17;;;15.70;63.60;;;;;;10448866;28;20054;-57
